Time;durP1;ratioP1;P1;durP2;ratioP2;P2;SDS_P1;SDS_P2;PMS_P1;PMS_P2;Temp;Humidity;BMP_temperature;BMP_pressure;BME280_temperature;BME280_humidity;BME280_pressure;Samples;Min_cycle;Max_cycle;Signal;HPM_P1;HPM_P2
2021/01/23 00:13:43;;;;;;;50.53;25.12;;;5.20;99.90;;;;;;674154;28;22009;-90
2021/01/23 00:20:08;;;;;;;52.62;24.95;;;5.10;99.90;;;;;;703862;28;21807;-89
2021/01/23 00:44:48;;;;;;;37.38;18.83;;;4.80;99.90;;;;;;803895;28;21839;-89
2021/01/23 00:47:36;;;;;;;35.80;18.23;;;4.80;99.90;;;;;;669611;28;21862;-88
2021/01/23 00:58:17;;;;;;;39.72;21.08;;;4.60;99.90;;;;;;895206;28;20443;-88
2021/01/23 01:01:39;;;;;;;38.05;20.35;;;4.50;99.90;;;;;;890441;28;20410;-89
2021/01/23 01:04:45;;;;;;;42.28;22.25;;;4.50;99.90;;;;;;780407;28;20414;-90
2021/01/23 02:10:44;;;;;;;31.37;17.17;;;3.80;99.90;;;;;;681602;28;21885;-89
2021/01/23 02:17:11;;;;;;;29.98;18.00;;;3.80;99.90;;;;;;718440;28;21852;-89
2021/01/23 02:20:49;;;;;;;27.02;14.82;;;3.80;99.90;;;;;;776366;28;21901;31
2021/01/23 02:23:45;;;;;;;37.13;21.65;;;3.80;99.90;;;;;;868397;28;20417;-89
2021/01/23 03:27:26;;;;;;;26.92;14.75;;;4.50;99.90;;;;;;675718;28;21969;-88
2021/01/23 03:33:50;;;;;;;89.70;52.20;;;4.60;99.90;;;;;;669709;28;21826;-89
2021/01/23 03:51:04;;;;;;;31.30;17.40;;;4.80;99.90;;;;;;668054;28;21940;-89
2021/01/23 04:50:40;;;;;;;37.22;20.35;;;4.90;99.90;;;;;;676344;28;21948;-88
2021/01/23 05:25:52;;;;;;;31.40;20.88;;;5.00;99.90;;;;;;669225;28;21812;-89
2021/01/23 05:39:48;;;;;;;38.60;20.90;;;4.90;99.90;;;;;;830138;28;20425;-89
2021/01/23 05:42:59;;;;;;;39.53;23.62;;;5.00;99.90;;;;;;791928;29;20401;-88
2021/01/23 05:45:48;;;;;;;36.63;21.12;;;5.00;99.90;;;;;;702569;29;20442;-89
2021/01/23 06:31:54;;;;;;;37.50;20.88;;;5.20;99.90;;;;;;741128;28;20407;-88
2021/01/23 06:38:25;;;;;;;50.58;28.65;;;5.30;99.90;;;;;;870910;28;20414;-88
2021/01/23 06:44:53;;;;;;;85.03;40.00;;;5.30;99.90;;;;;;782126;28;20408;-87
2021/01/23 07:06:02;;;;;;;45.38;25.35;;;5.30;99.90;;;;;;617073;28;20506;-88
2021/01/23 07:15:57;;;;;;;77.65;42.90;;;5.40;99.90;;;;;;1259954;28;21875;-90
2021/01/23 07:19:00;;;;;;;46.47;28.83;;;5.40;99.90;;;;;;1324752;29;20433;-88
2021/01/23 07:21:53;;;;;;;48.30;29.48;;;5.40;99.90;;;;;;1885034;29;20411;31
2021/01/23 07:25:02;;;;;;;45.78;28.33;;;5.40;99.90;;;;;;1894018;28;20475;31
2021/01/23 07:37:46;;;;;;;45.17;26.65;;;5.50;99.90;;;;;;2152030;28;20415;31
2021/01/23 07:48:20;;;;;;;48.30;25.37;;;5.60;99.90;;;;;;1211784;29;20388;-89
2021/01/23 08:09:06;;;;;;;46.60;27.13;;;5.90;99.90;;;;;;1052527;29;20419;-89
2021/01/23 08:12:18;;;;;;;46.80;24.75;;;6.00;99.90;;;;;;957291;29;21934;31
2021/01/23 19:04:13;;;;;;;8.85;4.57;;;2.90;99.90;;;;;;4834146;27;9708155;-92
2021/01/23 19:08:31;;;;;;;;;;;;;;;;;;;;;
2021/01/23 19:19:29;;;;;;;9.65;6.43;;;3.40;99.90;;;;;;5080965;28;20150;-89
2021/01/23 19:22:58;;;;;;;11.60;6.35;;;3.30;99.90;;;;;;5127992;27;20090;-89
2021/01/23 19:30:38;;;;;;;11.48;6.30;;;3.20;99.90;;;;;;4997481;28;20103;-89
2021/01/23 19:33:59;;;;;;;10.20;6.12;;;3.10;99.90;;;;;;4975421;28;20254;-89
2021/01/23 19:37:00;;;;;;;8.57;5.37;;;3.10;99.90;;;;;;4954328;29;20090;-90
2021/01/23 19:40:05;;;;;;;9.82;6.07;;;3.00;99.90;;;;;;5001653;28;20102;-89
2021/01/23 19:43:04;;;;;;;10.10;6.12;;;3.00;99.90;;;;;;4993521;28;20108;-89
2021/01/23 19:46:18;;;;;;;;;;;3.00;99.90;;;;;;5060934;28;20084;-90
2021/01/23 19:54:05;;;;;;;6.60;4.25;;;2.90;99.90;;;;;;5115150;28;20132;-89
2021/01/23 19:57:51;;;;;;;8.18;4.75;;;2.90;99.90;;;;;;5166067;27;20146;-89
2021/01/23 20:04:38;;;;;;;10.80;6.80;;;3.00;99.90;;;;;;5163186;27;20087;-86
2021/01/23 20:07:44;;;;;;;10.88;7.32;;;2.90;99.90;;;;;;5098767;28;20091;-85
2021/01/23 20:10:57;;;;;;;9.50;6.20;;;2.90;99.90;;;;;;5096258;28;20102;-85
2021/01/23 20:14:04;;;;;;;13.10;6.62;;;3.00;99.90;;;;;;5147560;27;20103;-86
2021/01/23 20:17:38;;;;;;;15.30;7.87;;;3.00;99.90;;;;;;5112104;28;20111;-86
2021/01/23 20:20:22;;;;;;;13.05;7.90;;;3.00;99.90;;;;;;5135335;28;20103;-86
2021/01/23 20:23:17;;;;;;;16.70;8.85;;;3.00;99.90;;;;;;5107706;28;20159;-86
2021/01/23 20:25:56;;;;;;;14.40;8.07;;;3.00;99.90;;;;;;5103302;28;20150;-85
2021/01/23 20:28:50;;;;;;;11.27;6.97;;;3.00;99.90;;;;;;5111442;28;20080;-86
2021/01/23 20:31:30;;;;;;;16.98;8.38;;;3.00;99.90;;;;;;5086283;28;20139;-85
2021/01/23 20:34:30;;;;;;;13.15;8.45;;;3.00;99.90;;;;;;5116614;28;20147;-85
2021/01/23 20:37:28;;;;;;;12.93;7.75;;;3.00;99.90;;;;;;5104790;28;20349;-85
2021/01/23 20:40:22;;;;;;;10.68;7.57;;;3.00;99.90;;;;;;5108885;28;20092;-86
2021/01/23 20:43:02;;;;;;;12.20;8.13;;;3.00;99.90;;;;;;5109179;27;20102;-86
2021/01/23 20:45:54;;;;;;;10.77;7.28;;;3.00;99.90;;;;;;5142524;27;20102;-86
2021/01/23 20:48:33;;;;;;;13.60;7.53;;;3.00;99.90;;;;;;5108952;27;20102;-86
2021/01/23 20:51:24;;;;;;;14.87;7.97;;;2.90;99.90;;;;;;5126407;27;20163;-85
2021/01/23 20:54:05;;;;;;;10.65;7.80;;;3.00;99.90;;;;;;5146922;27;20087;-85
2021/01/23 20:57:00;;;;;;;14.40;8.63;;;3.00;99.90;;;;;;5105860;28;20087;-86
2021/01/23 21:00:21;;;;;;;12.57;8.68;;;3.00;99.90;;;;;;5143934;27;20079;-86
2021/01/23 21:03:23;;;;;;;13.95;9.25;;;3.00;99.90;;;;;;5093845;28;20613;-86
2021/01/23 21:06:19;;;;;;;15.65;8.18;;;3.00;99.90;;;;;;5093548;28;20139;-86
2021/01/23 21:09:11;;;;;;;15.82;9.70;;;3.00;99.90;;;;;;5133083;27;20100;-85
2021/01/23 21:11:56;;;;;;;23.15;12.18;;;2.90;99.90;;;;;;5124497;27;20087;-86
2021/01/23 21:14:53;;;;;;;25.65;12.77;;;3.00;99.90;;;;;;5165305;27;20094;-86
2021/01/23 21:17:32;;;;;;;21.10;12.85;;;3.00;99.90;;;;;;5104661;28;20108;-86
2021/01/23 21:20:25;;;;;;;20.30;12.05;;;3.00;99.90;;;;;;5092671;28;20107;-87
2021/01/23 21:23:06;;;;;;;19.75;11.40;;;3.00;99.90;;;;;;5106603;28;20187;-86
2021/01/23 21:26:01;;;;;;;17.35;10.73;;;3.00;99.90;;;;;;5102495;28;20084;-87
2021/01/23 21:28:44;;;;;;;17.30;11.43;;;3.00;99.90;;;;;;5147892;27;20087;-86
2021/01/23 21:32:11;;;;;;;16.17;10.50;;;3.00;99.90;;;;;;5123900;28;20095;-87
2021/01/23 21:35:53;;;;;;;17.48;10.93;;;3.00;99.90;;;;;;5129542;28;20369;-86
2021/01/23 21:39:09;;;;;;;;;;;3.00;99.90;;;;;;5114269;28;20155;-88
2021/01/23 21:42:24;;;;;;;23.65;13.57;;;3.00;99.90;;;;;;5147314;27;20015;-88
2021/01/23 21:45:30;;;;;;;21.00;12.77;;;3.00;99.90;;;;;;5149420;27;20416;-85
2021/01/23 21:48:40;;;;;;;27.15;14.20;;;3.00;99.90;;;;;;5095958;28;20117;-86
2021/01/23 21:51:41;;;;;;;22.77;11.50;;;3.00;99.90;;;;;;5113246;28;20156;-88
2021/01/23 21:54:39;;;;;;;12.52;8.68;;;2.90;99.90;;;;;;5130049;27;20091;-86
2021/01/23 21:57:21;;;;;;;11.95;8.50;;;3.00;99.90;;;;;;5161139;27;20086;-88
2021/01/23 22:00:17;;;;;;;13.02;8.82;;;2.90;99.90;;;;;;5113834;27;20122;-87
2021/01/23 22:03:10;;;;;;;12.88;8.02;;;2.90;99.90;;;;;;5127183;27;20091;-88
2021/01/23 22:06:06;;;;;;;14.00;8.90;;;2.90;99.90;;;;;;5134787;27;20141;-85
2021/01/23 22:09:03;;;;;;;11.63;8.07;;;2.90;99.90;;;;;;5123952;28;20530;-85
2021/01/23 22:12:04;;;;;;;11.00;7.40;;;2.90;99.90;;;;;;5116461;28;20476;-85
2021/01/23 22:15:05;;;;;;;14.07;9.20;;;2.90;99.90;;;;;;5081550;28;20102;-86
2021/01/23 22:17:45;;;;;;;10.63;7.45;;;2.90;99.90;;;;;;5145959;27;20090;-86
2021/01/23 22:20:42;;;;;;;9.27;7.10;;;2.90;99.90;;;;;;5081925;28;20110;-86
2021/01/23 22:23:43;;;;;;;11.32;7.57;;;2.90;99.90;;;;;;5136198;28;20087;-86
2021/01/23 22:26:40;;;;;;;9.93;7.57;;;2.90;99.90;;;;;;5126951;28;20095;-86
2021/01/23 22:29:26;;;;;;;12.70;8.25;;;2.80;99.90;;;;;;5148134;27;20165;-87
2021/01/23 22:32:23;;;;;;;14.47;9.57;;;2.90;99.90;;;;;;5107291;28;20092;-86
2021/01/23 22:35:06;;;;;;;13.77;8.90;;;2.90;99.90;;;;;;5126942;27;20222;-85
2021/01/23 22:38:03;;;;;;;12.45;7.87;;;2.90;99.90;;;;;;5140847;27;20083;-87
2021/01/23 22:40:53;;;;;;;15.70;10.20;;;2.90;99.90;;;;;;5121565;28;20176;-86
2021/01/23 22:43:51;;;;;;;23.00;10.93;;;2.90;99.90;;;;;;5147229;27;20138;-85
2021/01/23 22:46:54;;;;;;;14.68;10.10;;;2.90;99.90;;;;;;5116215;27;20905;-85
2021/01/23 22:49:51;;;;;;;14.75;9.27;;;2.90;99.90;;;;;;5128488;27;20341;-88
2021/01/23 22:52:48;;;;;;;15.80;9.63;;;2.90;99.90;;;;;;5097475;28;20363;-85
2021/01/23 22:55:44;;;;;;;16.20;9.85;;;2.90;99.90;;;;;;5112384;28;20175;-88
2021/01/23 22:58:37;;;;;;;14.95;10.70;;;2.90;99.90;;;;;;5135955;27;20131;-85
2021/01/23 23:01:32;;;;;;;17.37;10.90;;;2.90;99.90;;;;;;5109609;28;20147;-87
2021/01/23 23:04:26;;;;;;;16.58;10.02;;;2.90;99.90;;;;;;5073385;28;20092;-86
2021/01/23 23:07:23;;;;;;;18.55;10.82;;;2.90;99.90;;;;;;5109842;28;20110;-88
2021/01/23 23:10:03;;;;;;;16.23;9.18;;;2.90;99.90;;;;;;5101207;28;20084;-85
2021/01/23 23:13:00;;;;;;;14.82;8.68;;;2.80;99.90;;;;;;5127148;28;20124;-86
2021/01/23 23:15:43;;;;;;;16.65;9.65;;;2.90;99.90;;;;;;5084244;28;20151;-85
2021/01/23 23:18:37;;;;;;;15.18;9.38;;;2.90;99.90;;;;;;5062496;28;20112;-85
2021/01/23 23:21:19;;;;;;;14.60;9.02;;;2.90;99.90;;;;;;5146662;27;20111;-84
2021/01/23 23:24:15;;;;;;;13.18;8.73;;;2.80;99.90;;;;;;5070664;28;20096;-87
2021/01/23 23:27:15;;;;;;;15.70;9.88;;;2.80;99.90;;;;;;5060674;28;20103;-86
2021/01/23 23:30:10;;;;;;;14.13;9.82;;;2.90;99.90;;;;;;5122923;27;20115;-88
2021/01/23 23:32:58;;;;;;;17.90;9.60;;;2.90;99.90;;;;;;5091098;28;20091;-84
2021/01/23 23:36:06;;;;;;;16.27;9.73;;;2.90;99.90;;;;;;5097856;28;20168;-88
2021/01/23 23:39:03;;;;;;;17.35;10.18;;;2.90;99.90;;;;;;5144756;27;20098;-85
2021/01/23 23:41:55;;;;;;;15.95;10.32;;;2.80;99.90;;;;;;5076057;28;20477;-87
2021/01/23 23:44:34;;;;;;;17.12;9.80;;;2.90;99.90;;;;;;5145676;27;20107;-86
2021/01/23 23:47:27;;;;;;;14.68;9.25;;;2.90;99.90;;;;;;5124563;28;20168;-88
2021/01/23 23:50:07;;;;;;;14.90;9.18;;;2.80;99.90;;;;;;5147836;27;20091;-88
2021/01/23 23:52:58;;;;;;;13.98;9.52;;;2.90;99.90;;;;;;5116929;27;20087;-85
2021/01/23 23:55:37;;;;;;;17.48;9.77;;;2.90;99.90;;;;;;5109639;28;20511;-87
2021/01/23 23:58:29;;;;;;;16.05;10.20;;;2.90;99.90;;;;;;5084611;28;20171;-85
